sensor_id;sensor_type;location;lat;lon;timestamp;temperature;humidity
25640;DHT22;13497;48.322;16.204;2023-11-22T00:02:17;8.10;99.90
25640;DHT22;13497;48.322;16.204;2023-11-22T00:04:43;8.20;99.90
25640;DHT22;13497;48.322;16.204;2023-11-22T00:07:09;8.10;99.90
25640;DHT22;13497;48.322;16.204;2023-11-22T00:09:35;8.10;99.90
25640;DHT22;13497;48.322;16.204;2023-11-22T00:12:01;8.10;99.90
25640;DHT22;13497;48.322;16.204;2023-11-22T00:14:26;8.10;99.90
25640;DHT22;13497;48.322;16.204;2023-11-22T00:16:52;8.00;99.90
25640;DHT22;13497;48.322;16.204;2023-11-22T00:19:18;7.80;99.90
25640;DHT22;13497;48.322;16.204;2023-11-22T00:41:58;7.40;99.90
25640;DHT22;13497;48.322;16.204;2023-11-22T00:44:24;7.40;99.90
25640;DHT22;13497;48.322;16.204;2023-11-22T00:46:50;7.40;99.90
25640;DHT22;13497;48.322;16.204;2023-11-22T00:49:15;7.20;99.90
25640;DHT22;13497;48.322;16.204;2023-11-22T00:51:41;7.20;99.90
25640;DHT22;13497;48.322;16.204;2023-11-22T00:54:07;7.20;99.90
25640;DHT22;13497;48.322;16.204;2023-11-22T00:56:33;7.20;99.90
25640;DHT22;13497;48.322;16.204;2023-11-22T00:58:58;7.20;99.90
25640;DHT22;13497;48.322;16.204;2023-11-22T01:01:29;7.20;99.90
25640;DHT22;13497;48.322;16.204;2023-11-22T01:03:55;7.30;99.90
25640;DHT22;13497;48.322;16.204;2023-11-22T01:06:21;7.30;99.90
25640;DHT22;13497;48.322;16.204;2023-11-22T01:08:48;7.30;99.90
25640;DHT22;13497;48.322;16.204;2023-11-22T01:11:14;7.40;99.90
25640;DHT22;13497;48.322;16.204;2023-11-22T01:13:40;7.30;99.90
25640;DHT22;13497;48.322;16.204;2023-11-22T01:16:08;7.20;99.90
25640;DHT22;13497;48.322;16.204;2023-11-22T01:18:34;7.10;99.90
25640;DHT22;13497;48.322;16.204;2023-11-22T01:21:00;7.00;99.90
25640;DHT22;13497;48.322;16.204;2023-11-22T01:23:26;7.00;99.90
25640;DHT22;13497;48.322;16.204;2023-11-22T01:25:53;6.90;99.90
25640;DHT22;13497;48.322;16.204;2023-11-22T01:28:19;7.00;99.90
25640;DHT22;13497;48.322;16.204;2023-11-22T01:30:44;6.90;99.90
25640;DHT22;13497;48.322;16.204;2023-11-22T01:33:14;6.80;99.90
25640;DHT22;13497;48.322;16.204;2023-11-22T01:35:40;6.70;99.90
25640;DHT22;13497;48.322;16.204;2023-11-22T01:38:06;6.70;99.90
25640;DHT22;13497;48.322;16.204;2023-11-22T01:40:33;6.70;99.90
25640;DHT22;13497;48.322;16.204;2023-11-22T01:43:00;6.60;99.90
25640;DHT22;13497;48.322;16.204;2023-11-22T01:45:28;6.60;99.90
25640;DHT22;13497;48.322;16.204;2023-11-22T01:47:54;6.50;99.90
25640;DHT22;13497;48.322;16.204;2023-11-22T01:50:20;6.60;99.90
25640;DHT22;13497;48.322;16.204;2023-11-22T01:52:46;6.50;99.90
25640;DHT22;13497;48.322;16.204;2023-11-22T01:55:13;6.70;99.90
25640;DHT22;13497;48.322;16.204;2023-11-22T01:57:39;6.60;99.90
25640;DHT22;13497;48.322;16.204;2023-11-22T02:00:05;6.60;99.90
25640;DHT22;13497;48.322;16.204;2023-11-22T02:02:39;6.60;99.90
25640;DHT22;13497;48.322;16.204;2023-11-22T02:05:05;6.70;99.90
25640;DHT22;13497;48.322;16.204;2023-11-22T02:07:31;6.70;99.90
25640;DHT22;13497;48.322;16.204;2023-11-22T02:09:58;6.60;99.90
25640;DHT22;13497;48.322;16.204;2023-11-22T02:12:24;6.60;99.90
25640;DHT22;13497;48.322;16.204;2023-11-22T02:14:49;6.70;99.90
25640;DHT22;13497;48.322;16.204;2023-11-22T02:17:16;6.70;99.90
25640;DHT22;13497;48.322;16.204;2023-11-22T02:19:43;6.60;99.90
25640;DHT22;13497;48.322;16.204;2023-11-22T02:22:08;6.60;99.90
25640;DHT22;13497;48.322;16.204;2023-11-22T02:24:34;6.50;99.90
25640;DHT22;13497;48.322;16.204;2023-11-22T02:27:00;6.50;99.90
25640;DHT22;13497;48.322;16.204;2023-11-22T02:29:26;6.50;99.90
25640;DHT22;13497;48.322;16.204;2023-11-22T02:31:52;6.60;99.90
25640;DHT22;13497;48.322;16.204;2023-11-22T02:34:18;6.60;99.90
25640;DHT22;13497;48.322;16.204;2023-11-22T02:36:44;6.60;99.90
25640;DHT22;13497;48.322;16.204;2023-11-22T02:39:10;6.70;99.90
25640;DHT22;13497;48.322;16.204;2023-11-22T02:41:36;6.70;99.90
25640;DHT22;13497;48.322;16.204;2023-11-22T02:44:02;6.70;99.90
25640;DHT22;13497;48.322;16.204;2023-11-22T02:46:27;6.70;99.90
25640;DHT22;13497;48.322;16.204;2023-11-22T02:48:54;6.70;99.90
25640;DHT22;13497;48.322;16.204;2023-11-22T02:51:20;6.60;99.90
25640;DHT22;13497;48.322;16.204;2023-11-22T02:53:48;6.40;99.90
25640;DHT22;13497;48.322;16.204;2023-11-22T02:56:14;6.30;99.90
25640;DHT22;13497;48.322;16.204;2023-11-22T02:58:40;6.30;99.90
25640;DHT22;13497;48.322;16.204;2023-11-22T03:01:06;6.30;99.90
25640;DHT22;13497;48.322;16.204;2023-11-22T03:03:35;6.40;99.90
25640;DHT22;13497;48.322;16.204;2023-11-22T03:06:01;6.40;99.90
25640;DHT22;13497;48.322;16.204;2023-11-22T03:08:27;6.30;99.90
25640;DHT22;13497;48.322;16.204;2023-11-22T03:10:53;6.30;99.90
25640;DHT22;13497;48.322;16.204;2023-11-22T03:13:19;6.30;99.90
25640;DHT22;13497;48.322;16.204;2023-11-22T03:15:44;6.30;99.90
25640;DHT22;13497;48.322;16.204;2023-11-22T03:18:10;6.30;99.90
25640;DHT22;13497;48.322;16.204;2023-11-22T03:20:37;6.20;99.90
25640;DHT22;13497;48.322;16.204;2023-11-22T03:23:03;6.10;99.90
25640;DHT22;13497;48.322;16.204;2023-11-22T03:25:29;6.10;99.90
25640;DHT22;13497;48.322;16.204;2023-11-22T03:27:55;6.10;99.90
25640;DHT22;13497;48.322;16.204;2023-11-22T03:30:21;6.10;99.90
25640;DHT22;13497;48.322;16.204;2023-11-22T03:32:47;6.10;99.90
25640;DHT22;13497;48.322;16.204;2023-11-22T03:35:13;6.00;99.90
25640;DHT22;13497;48.322;16.204;2023-11-22T03:37:39;6.00;99.90
25640;DHT22;13497;48.322;16.204;2023-11-22T03:40:05;6.00;99.90
25640;DHT22;13497;48.322;16.204;2023-11-22T03:42:31;6.00;99.90
25640;DHT22;13497;48.322;16.204;2023-11-22T03:44:56;6.10;99.90
25640;DHT22;13497;48.322;16.204;2023-11-22T03:47:24;6.10;99.90
25640;DHT22;13497;48.322;16.204;2023-11-22T03:49:50;6.10;99.90
25640;DHT22;13497;48.322;16.204;2023-11-22T03:52:15;6.10;99.90
25640;DHT22;13497;48.322;16.204;2023-11-22T03:54:41;6.20;99.90
25640;DHT22;13497;48.322;16.204;2023-11-22T03:57:06;6.20;99.90
25640;DHT22;13497;48.322;16.204;2023-11-22T03:59:34;6.20;99.90
25640;DHT22;13497;48.322;16.204;2023-11-22T04:02:00;6.20;99.90
25640;DHT22;13497;48.322;16.204;2023-11-22T04:04:26;6.10;99.90
25640;DHT22;13497;48.322;16.204;2023-11-22T04:06:51;6.00;99.90
25640;DHT22;13497;48.322;16.204;2023-11-22T04:09:18;6.00;99.90
25640;DHT22;13497;48.322;16.204;2023-11-22T04:11:46;5.80;99.90
25640;DHT22;13497;48.322;16.204;2023-11-22T04:14:13;5.70;99.90
25640;DHT22;13497;48.322;16.204;2023-11-22T04:16:38;5.70;99.90
25640;DHT22;13497;48.322;16.204;2023-11-22T04:19:04;5.60;99.90
25640;DHT22;13497;48.322;16.204;2023-11-22T04:21:30;5.60;99.90
25640;DHT22;13497;48.322;16.204;2023-11-22T04:23:56;5.60;99.90
25640;DHT22;13497;48.322;16.204;2023-11-22T04:26:21;5.60;99.90
25640;DHT22;13497;48.322;16.204;2023-11-22T04:28:47;5.60;99.90
25640;DHT22;13497;48.322;16.204;2023-11-22T04:31:13;5.60;99.90
25640;DHT22;13497;48.322;16.204;2023-11-22T04:33:38;5.60;99.90
25640;DHT22;13497;48.322;16.204;2023-11-22T04:36:04;5.50;99.90
25640;DHT22;13497;48.322;16.204;2023-11-22T04:38:30;5.50;99.90
25640;DHT22;13497;48.322;16.204;2023-11-22T04:40:56;5.50;99.90
25640;DHT22;13497;48.322;16.204;2023-11-22T04:43:21;5.50;99.90
25640;DHT22;13497;48.322;16.204;2023-11-22T04:45:48;5.50;99.90
25640;DHT22;13497;48.322;16.204;2023-11-22T04:48:15;5.40;99.90
25640;DHT22;13497;48.322;16.204;2023-11-22T04:50:41;5.40;99.90
25640;DHT22;13497;48.322;16.204;2023-11-22T04:53:09;5.30;99.90
25640;DHT22;13497;48.322;16.204;2023-11-22T04:55:35;5.30;99.90
25640;DHT22;13497;48.322;16.204;2023-11-22T04:58:01;5.30;99.90
25640;DHT22;13497;48.322;16.204;2023-11-22T05:00:27;5.30;99.90
25640;DHT22;13497;48.322;16.204;2023-11-22T05:02:52;5.40;99.90
25640;DHT22;13497;48.322;16.204;2023-11-22T05:05:20;5.40;99.90
25640;DHT22;13497;48.322;16.204;2023-11-22T05:07:46;5.30;99.90
25640;DHT22;13497;48.322;16.204;2023-11-22T05:10:12;5.30;99.90
25640;DHT22;13497;48.322;16.204;2023-11-22T05:12:39;5.30;99.90
25640;DHT22;13497;48.322;16.204;2023-11-22T05:15:06;5.30;99.90
25640;DHT22;13497;48.322;16.204;2023-11-22T05:17:32;5.30;99.90
25640;DHT22;13497;48.322;16.204;2023-11-22T05:19:58;5.30;99.90
25640;DHT22;13497;48.322;16.204;2023-11-22T05:22:23;5.30;99.90
25640;DHT22;13497;48.322;16.204;2023-11-22T05:24:49;5.20;99.90
25640;DHT22;13497;48.322;16.204;2023-11-22T05:27:15;5.20;99.90
25640;DHT22;13497;48.322;16.204;2023-11-22T05:29:40;5.20;99.90
25640;DHT22;13497;48.322;16.204;2023-11-22T05:32:06;5.20;99.90
25640;DHT22;13497;48.322;16.204;2023-11-22T05:34:32;5.20;99.90
25640;DHT22;13497;48.322;16.204;2023-11-22T05:36:58;5.20;99.90
25640;DHT22;13497;48.322;16.204;2023-11-22T05:39:24;5.10;99.90
25640;DHT22;13497;48.322;16.204;2023-11-22T05:41:50;5.10;99.90
25640;DHT22;13497;48.322;16.204;2023-11-22T05:44:16;5.00;99.90
25640;DHT22;13497;48.322;16.204;2023-11-22T05:46:42;4.90;99.90
25640;DHT22;13497;48.322;16.204;2023-11-22T05:49:07;4.90;99.90
25640;DHT22;13497;48.322;16.204;2023-11-22T05:51:33;4.90;99.90
25640;DHT22;13497;48.322;16.204;2023-11-22T05:54:00;4.90;99.90
25640;DHT22;13497;48.322;16.204;2023-11-22T05:56:26;5.00;99.90
25640;DHT22;13497;48.322;16.204;2023-11-22T05:58:51;4.90;99.90
25640;DHT22;13497;48.322;16.204;2023-11-22T06:01:17;4.90;99.90
25640;DHT22;13497;48.322;16.204;2023-11-22T06:03:43;5.00;99.90
25640;DHT22;13497;48.322;16.204;2023-11-22T06:06:08;5.00;99.90
25640;DHT22;13497;48.322;16.204;2023-11-22T06:08:34;5.00;99.90
25640;DHT22;13497;48.322;16.204;2023-11-22T06:11:00;5.00;99.90
25640;DHT22;13497;48.322;16.204;2023-11-22T06:13:26;5.00;99.90
25640;DHT22;13497;48.322;16.204;2023-11-22T06:15:52;4.90;99.90
25640;DHT22;13497;48.322;16.204;2023-11-22T06:18:18;4.90;99.90
25640;DHT22;13497;48.322;16.204;2023-11-22T06:20:45;4.90;99.90
25640;DHT22;13497;48.322;16.204;2023-11-22T06:23:12;4.90;99.90
25640;DHT22;13497;48.322;16.204;2023-11-22T06:25:38;4.90;99.90
25640;DHT22;13497;48.322;16.204;2023-11-22T06:28:07;4.90;99.90
25640;DHT22;13497;48.322;16.204;2023-11-22T06:30:33;4.80;99.90
25640;DHT22;13497;48.322;16.204;2023-11-22T06:33:00;4.70;99.90
25640;DHT22;13497;48.322;16.204;2023-11-22T06:35:26;4.60;99.90
25640;DHT22;13497;48.322;16.204;2023-11-22T06:37:52;4.50;99.90
25640;DHT22;13497;48.322;16.204;2023-11-22T06:40:18;4.50;99.90
25640;DHT22;13497;48.322;16.204;2023-11-22T06:42:46;4.50;99.90
25640;DHT22;13497;48.322;16.204;2023-11-22T06:45:12;4.50;99.90
25640;DHT22;13497;48.322;16.204;2023-11-22T06:47:43;4.60;99.90
25640;DHT22;13497;48.322;16.204;2023-11-22T06:50:10;4.70;99.90
25640;DHT22;13497;48.322;16.204;2023-11-22T06:52:39;4.70;99.90
25640;DHT22;13497;48.322;16.204;2023-11-22T06:55:06;4.60;99.90
25640;DHT22;13497;48.322;16.204;2023-11-22T06:57:38;4.60;99.90
25640;DHT22;13497;48.322;16.204;2023-11-22T07:00:05;4.50;99.90
25640;DHT22;13497;48.322;16.204;2023-11-22T07:02:33;4.60;99.90
25640;DHT22;13497;48.322;16.204;2023-11-22T07:05:03;4.60;99.90
25640;DHT22;13497;48.322;16.204;2023-11-22T07:07:29;4.50;99.90
25640;DHT22;13497;48.322;16.204;2023-11-22T07:09:55;4.60;99.90
25640;DHT22;13497;48.322;16.204;2023-11-22T07:12:24;4.70;99.90
25640;DHT22;13497;48.322;16.204;2023-11-22T07:14:50;4.70;99.90
25640;DHT22;13497;48.322;16.204;2023-11-22T07:17:16;4.70;99.90
25640;DHT22;13497;48.322;16.204;2023-11-22T07:19:43;4.80;99.90
25640;DHT22;13497;48.322;16.204;2023-11-22T07:22:13;4.70;99.90
25640;DHT22;13497;48.322;16.204;2023-11-22T07:24:42;4.80;99.90
25640;DHT22;13497;48.322;16.204;2023-11-22T07:27:13;4.80;99.90
25640;DHT22;13497;48.322;16.204;2023-11-22T07:29:43;4.70;99.90
25640;DHT22;13497;48.322;16.204;2023-11-22T07:32:09;4.80;99.90
25640;DHT22;13497;48.322;16.204;2023-11-22T07:34:36;4.80;99.90
25640;DHT22;13497;48.322;16.204;2023-11-22T07:37:02;4.80;99.90
25640;DHT22;13497;48.322;16.204;2023-11-22T07:39:28;4.70;99.90
25640;DHT22;13497;48.322;16.204;2023-11-22T07:41:54;4.70;99.90
25640;DHT22;13497;48.322;16.204;2023-11-22T07:44:21;4.80;99.90
25640;DHT22;13497;48.322;16.204;2023-11-22T07:46:47;4.90;99.90
25640;DHT22;13497;48.322;16.204;2023-11-22T07:49:13;4.90;99.90
25640;DHT22;13497;48.322;16.204;2023-11-22T07:51:42;4.70;99.90
25640;DHT22;13497;48.322;16.204;2023-11-22T07:54:09;4.70;99.90
25640;DHT22;13497;48.322;16.204;2023-11-22T07:56:34;4.60;99.90
25640;DHT22;13497;48.322;16.204;2023-11-22T07:59:00;4.50;99.90
25640;DHT22;13497;48.322;16.204;2023-11-22T08:01:26;4.40;99.90
25640;DHT22;13497;48.322;16.204;2023-11-22T08:03:57;4.40;99.90
25640;DHT22;13497;48.322;16.204;2023-11-22T08:06:22;4.30;99.90
25640;DHT22;13497;48.322;16.204;2023-11-22T08:08:48;4.30;99.90
25640;DHT22;13497;48.322;16.204;2023-11-22T08:11:14;4.30;99.90
25640;DHT22;13497;48.322;16.204;2023-11-22T08:13:43;4.30;99.90
25640;DHT22;13497;48.322;16.204;2023-11-22T08:16:11;4.20;99.90
25640;DHT22;13497;48.322;16.204;2023-11-22T08:18:40;4.20;99.90
25640;DHT22;13497;48.322;16.204;2023-11-22T08:21:08;4.20;99.90
25640;DHT22;13497;48.322;16.204;2023-11-22T08:23:34;4.20;99.90
25640;DHT22;13497;48.322;16.204;2023-11-22T08:26:00;4.20;99.90
25640;DHT22;13497;48.322;16.204;2023-11-22T08:28:26;4.20;99.90
25640;DHT22;13497;48.322;16.204;2023-11-22T08:30:52;4.40;99.90
25640;DHT22;13497;48.322;16.204;2023-11-22T08:33:18;4.30;99.90
25640;DHT22;13497;48.322;16.204;2023-11-22T08:35:44;4.40;99.90
25640;DHT22;13497;48.322;16.204;2023-11-22T08:38:16;4.50;99.90
25640;DHT22;13497;48.322;16.204;2023-11-22T08:40:42;4.50;99.90
25640;DHT22;13497;48.322;16.204;2023-11-22T08:43:08;4.50;99.90
25640;DHT22;13497;48.322;16.204;2023-11-22T08:45:33;4.30;99.90
25640;DHT22;13497;48.322;16.204;2023-11-22T08:48:00;4.10;99.90
25640;DHT22;13497;48.322;16.204;2023-11-22T08:50:26;4.10;99.90
25640;DHT22;13497;48.322;16.204;2023-11-22T08:52:51;4.10;99.90
25640;DHT22;13497;48.322;16.204;2023-11-22T08:55:19;4.20;99.90
25640;DHT22;13497;48.322;16.204;2023-11-22T08:57:47;4.20;99.90
25640;DHT22;13497;48.322;16.204;2023-11-22T09:00:13;4.20;99.90
25640;DHT22;13497;48.322;16.204;2023-11-22T09:02:40;4.30;99.90
25640;DHT22;13497;48.322;16.204;2023-11-22T09:05:06;4.30;99.90
25640;DHT22;13497;48.322;16.204;2023-11-22T09:07:38;4.20;99.90
25640;DHT22;13497;48.322;16.204;2023-11-22T09:10:04;4.30;99.90
25640;DHT22;13497;48.322;16.204;2023-11-22T09:12:36;4.40;99.90
25640;DHT22;13497;48.322;16.204;2023-11-22T09:15:03;4.30;99.90
25640;DHT22;13497;48.322;16.204;2023-11-22T09:17:30;4.20;99.90
25640;DHT22;13497;48.322;16.204;2023-11-22T09:19:56;4.40;99.90
25640;DHT22;13497;48.322;16.204;2023-11-22T09:22:23;4.40;99.90
25640;DHT22;13497;48.322;16.204;2023-11-22T09:24:51;4.40;99.90
25640;DHT22;13497;48.322;16.204;2023-11-22T09:27:17;4.40;99.90
25640;DHT22;13497;48.322;16.204;2023-11-22T09:29:43;4.50;99.90
25640;DHT22;13497;48.322;16.204;2023-11-22T09:32:10;4.70;99.90
25640;DHT22;13497;48.322;16.204;2023-11-22T09:34:36;4.70;99.90
25640;DHT22;13497;48.322;16.204;2023-11-22T09:37:01;4.90;99.90
25640;DHT22;13497;48.322;16.204;2023-11-22T09:39:27;5.00;99.90
25640;DHT22;13497;48.322;16.204;2023-11-22T09:41:53;5.20;99.90
25640;DHT22;13497;48.322;16.204;2023-11-22T09:44:19;5.30;99.90
25640;DHT22;13497;48.322;16.204;2023-11-22T09:46:48;5.30;99.90
25640;DHT22;13497;48.322;16.204;2023-11-22T09:49:20;5.50;99.90
25640;DHT22;13497;48.322;16.204;2023-11-22T09:51:49;5.30;99.90
25640;DHT22;13497;48.322;16.204;2023-11-22T09:54:18;5.30;99.90
25640;DHT22;13497;48.322;16.204;2023-11-22T09:56:45;5.40;99.90
25640;DHT22;13497;48.322;16.204;2023-11-22T09:59:16;5.40;99.90
25640;DHT22;13497;48.322;16.204;2023-11-22T10:01:42;5.40;99.90
25640;DHT22;13497;48.322;16.204;2023-11-22T10:04:08;5.20;99.90
25640;DHT22;13497;48.322;16.204;2023-11-22T10:06:34;5.20;99.90
25640;DHT22;13497;48.322;16.204;2023-11-22T10:09:04;5.00;99.90
25640;DHT22;13497;48.322;16.204;2023-11-22T10:11:34;4.90;99.90
25640;DHT22;13497;48.322;16.204;2023-11-22T10:14:01;5.00;99.90
25640;DHT22;13497;48.322;16.204;2023-11-22T10:16:27;4.90;99.90
25640;DHT22;13497;48.322;16.204;2023-11-22T10:18:52;4.90;99.90
25640;DHT22;13497;48.322;16.204;2023-11-22T10:21:23;4.90;99.90
25640;DHT22;13497;48.322;16.204;2023-11-22T10:23:56;4.90;99.90
25640;DHT22;13497;48.322;16.204;2023-11-22T10:26:23;4.90;99.90
25640;DHT22;13497;48.322;16.204;2023-11-22T10:28:52;4.90;99.90
25640;DHT22;13497;48.322;16.204;2023-11-22T10:31:19;5.00;99.90
25640;DHT22;13497;48.322;16.204;2023-11-22T10:33:47;5.00;99.90
25640;DHT22;13497;48.322;16.204;2023-11-22T10:36:16;4.90;99.90
25640;DHT22;13497;48.322;16.204;2023-11-22T10:38:47;4.90;99.90
25640;DHT22;13497;48.322;16.204;2023-11-22T10:41:13;4.90;99.90
25640;DHT22;13497;48.322;16.204;2023-11-22T10:43:39;4.80;99.90
25640;DHT22;13497;48.322;16.204;2023-11-22T10:46:07;4.90;99.90
25640;DHT22;13497;48.322;16.204;2023-11-22T10:48:36;5.00;99.90
25640;DHT22;13497;48.322;16.204;2023-11-22T10:51:03;5.10;99.90
25640;DHT22;13497;48.322;16.204;2023-11-22T10:53:36;5.30;99.90
25640;DHT22;13497;48.322;16.204;2023-11-22T10:56:16;5.40;99.90
25640;DHT22;13497;48.322;16.204;2023-11-22T10:58:56;5.50;99.90
25640;DHT22;13497;48.322;16.204;2023-11-22T11:01:26;5.60;99.90
25640;DHT22;13497;48.322;16.204;2023-11-22T11:06:24;5.30;99.90
25640;DHT22;13497;48.322;16.204;2023-11-22T11:08:57;5.30;99.90
25640;DHT22;13497;48.322;16.204;2023-11-22T11:11:25;5.20;99.90
25640;DHT22;13497;48.322;16.204;2023-11-22T11:13:53;5.10;99.90
25640;DHT22;13497;48.322;16.204;2023-11-22T11:16:20;5.10;99.90
25640;DHT22;13497;48.322;16.204;2023-11-22T11:18:46;5.20;99.90
25640;DHT22;13497;48.322;16.204;2023-11-22T11:21:15;5.30;99.90
25640;DHT22;13497;48.322;16.204;2023-11-22T11:23:41;5.30;99.90
25640;DHT22;13497;48.322;16.204;2023-11-22T11:26:19;5.30;99.90
25640;DHT22;13497;48.322;16.204;2023-11-22T11:28:49;5.20;99.90
25640;DHT22;13497;48.322;16.204;2023-11-22T11:31:16;5.10;99.90
25640;DHT22;13497;48.322;16.204;2023-11-22T11:36:25;5.00;99.90
25640;DHT22;13497;48.322;16.204;2023-11-22T11:38:52;4.90;99.90
25640;DHT22;13497;48.322;16.204;2023-11-22T11:41:27;5.00;99.90
25640;DHT22;13497;48.322;16.204;2023-11-22T11:43:53;4.90;99.90
25640;DHT22;13497;48.322;16.204;2023-11-22T11:46:21;4.90;99.90
25640;DHT22;13497;48.322;16.204;2023-11-22T11:48:50;4.80;99.90
25640;DHT22;13497;48.322;16.204;2023-11-22T11:51:21;4.80;99.90
25640;DHT22;13497;48.322;16.204;2023-11-22T11:53:48;4.90;99.90
25640;DHT22;13497;48.322;16.204;2023-11-22T11:56:14;4.90;99.90
25640;DHT22;13497;48.322;16.204;2023-11-22T11:58:47;4.90;99.90
25640;DHT22;13497;48.322;16.204;2023-11-22T12:01:16;5.00;99.90
25640;DHT22;13497;48.322;16.204;2023-11-22T12:03:48;5.00;99.90
25640;DHT22;13497;48.322;16.204;2023-11-22T12:06:17;5.00;99.90
25640;DHT22;13497;48.322;16.204;2023-11-22T12:08:44;5.00;99.90
25640;DHT22;13497;48.322;16.204;2023-11-22T12:11:11;5.00;99.90
25640;DHT22;13497;48.322;16.204;2023-11-22T12:13:37;5.10;99.90
25640;DHT22;13497;48.322;16.204;2023-11-22T12:16:05;5.10;99.90
25640;DHT22;13497;48.322;16.204;2023-11-22T12:18:46;5.00;99.90
25640;DHT22;13497;48.322;16.204;2023-11-22T12:21:17;5.00;99.90
25640;DHT22;13497;48.322;16.204;2023-11-22T12:23:44;5.00;99.90
25640;DHT22;13497;48.322;16.204;2023-11-22T12:26:15;4.90;99.90
25640;DHT22;13497;48.322;16.204;2023-11-22T12:28:42;4.90;99.90
25640;DHT22;13497;48.322;16.204;2023-11-22T12:31:11;5.00;99.90
25640;DHT22;13497;48.322;16.204;2023-11-22T12:33:38;5.00;99.90
25640;DHT22;13497;48.322;16.204;2023-11-22T12:36:06;4.90;99.90
25640;DHT22;13497;48.322;16.204;2023-11-22T12:38:33;4.90;99.90
25640;DHT22;13497;48.322;16.204;2023-11-22T12:40:59;4.80;99.90
25640;DHT22;13497;48.322;16.204;2023-11-22T12:43:27;4.80;99.90
25640;DHT22;13497;48.322;16.204;2023-11-22T12:46:03;5.00;99.90
25640;DHT22;13497;48.322;16.204;2023-11-22T12:48:29;4.90;99.90
25640;DHT22;13497;48.322;16.204;2023-11-22T12:50:56;4.90;99.90
25640;DHT22;13497;48.322;16.204;2023-11-22T12:53:23;4.80;99.90
25640;DHT22;13497;48.322;16.204;2023-11-22T12:55:52;4.80;99.90
25640;DHT22;13497;48.322;16.204;2023-11-22T12:58:19;4.90;99.90
25640;DHT22;13497;48.322;16.204;2023-11-22T13:00:47;4.90;99.90
25640;DHT22;13497;48.322;16.204;2023-11-22T13:03:13;5.00;99.90
25640;DHT22;13497;48.322;16.204;2023-11-22T13:05:40;5.10;99.90
25640;DHT22;13497;48.322;16.204;2023-11-22T13:08:10;5.10;99.90
25640;DHT22;13497;48.322;16.204;2023-11-22T13:10:39;5.00;99.90
25640;DHT22;13497;48.322;16.204;2023-11-22T13:13:05;5.00;99.90
25640;DHT22;13497;48.322;16.204;2023-11-22T13:15:34;5.00;99.90
25640;DHT22;13497;48.322;16.204;2023-11-22T13:18:00;4.80;99.90
25640;DHT22;13497;48.322;16.204;2023-11-22T13:20:26;4.80;99.90
25640;DHT22;13497;48.322;16.204;2023-11-22T13:22:53;4.80;99.90
25640;DHT22;13497;48.322;16.204;2023-11-22T13:25:19;4.70;99.90
25640;DHT22;13497;48.322;16.204;2023-11-22T13:27:48;4.80;99.90
25640;DHT22;13497;48.322;16.204;2023-11-22T13:30:15;4.80;99.90
25640;DHT22;13497;48.322;16.204;2023-11-22T13:32:43;4.90;99.90
25640;DHT22;13497;48.322;16.204;2023-11-22T13:35:09;4.80;99.90
25640;DHT22;13497;48.322;16.204;2023-11-22T13:37:43;4.90;99.90
25640;DHT22;13497;48.322;16.204;2023-11-22T13:40:10;4.90;99.90
25640;DHT22;13497;48.322;16.204;2023-11-22T13:42:49;5.00;99.90
25640;DHT22;13497;48.322;16.204;2023-11-22T13:45:16;5.00;99.90
25640;DHT22;13497;48.322;16.204;2023-11-22T13:47:52;5.00;99.90
25640;DHT22;13497;48.322;16.204;2023-11-22T13:50:22;5.00;99.90
25640;DHT22;13497;48.322;16.204;2023-11-22T13:52:49;5.10;99.90
25640;DHT22;13497;48.322;16.204;2023-11-22T13:55:16;5.20;99.90
25640;DHT22;13497;48.322;16.204;2023-11-22T13:57:45;5.20;99.90
25640;DHT22;13497;48.322;16.204;2023-11-22T14:00:11;5.20;99.90
25640;DHT22;13497;48.322;16.204;2023-11-22T14:02:40;5.30;99.90
25640;DHT22;13497;48.322;16.204;2023-11-22T14:05:07;5.30;99.90
25640;DHT22;13497;48.322;16.204;2023-11-22T14:07:36;5.30;99.90
25640;DHT22;13497;48.322;16.204;2023-11-22T14:10:02;5.20;99.90
25640;DHT22;13497;48.322;16.204;2023-11-22T14:12:29;5.10;99.90
25640;DHT22;13497;48.322;16.204;2023-11-22T14:14:54;5.00;99.90
25640;DHT22;13497;48.322;16.204;2023-11-22T14:17:20;5.00;99.90
25640;DHT22;13497;48.322;16.204;2023-11-22T14:19:46;5.10;99.90
25640;DHT22;13497;48.322;16.204;2023-11-22T14:22:12;5.10;99.90
25640;DHT22;13497;48.322;16.204;2023-11-22T14:24:39;5.10;99.90
25640;DHT22;13497;48.322;16.204;2023-11-22T14:27:05;5.00;99.90
25640;DHT22;13497;48.322;16.204;2023-11-22T14:29:31;5.10;99.90
25640;DHT22;13497;48.322;16.204;2023-11-22T14:31:58;5.00;99.90
25640;DHT22;13497;48.322;16.204;2023-11-22T14:34:24;4.90;99.90
25640;DHT22;13497;48.322;16.204;2023-11-22T14:36:50;4.80;99.90
25640;DHT22;13497;48.322;16.204;2023-11-22T14:39:16;4.70;99.90
25640;DHT22;13497;48.322;16.204;2023-11-22T14:41:41;4.80;99.90
25640;DHT22;13497;48.322;16.204;2023-11-22T14:44:07;4.80;99.90
25640;DHT22;13497;48.322;16.204;2023-11-22T14:46:34;4.80;99.90
25640;DHT22;13497;48.322;16.204;2023-11-22T14:49:02;4.90;99.90
25640;DHT22;13497;48.322;16.204;2023-11-22T14:51:29;5.00;99.90
25640;DHT22;13497;48.322;16.204;2023-11-22T14:53:56;5.00;99.90
25640;DHT22;13497;48.322;16.204;2023-11-22T14:56:21;5.10;99.90
25640;DHT22;13497;48.322;16.204;2023-11-22T14:58:48;5.00;99.90
25640;DHT22;13497;48.322;16.204;2023-11-22T15:01:19;4.80;99.90
25640;DHT22;13497;48.322;16.204;2023-11-22T15:03:46;4.70;99.90
25640;DHT22;13497;48.322;16.204;2023-11-22T15:06:14;4.80;99.90
25640;DHT22;13497;48.322;16.204;2023-11-22T15:08:40;4.80;99.90
25640;DHT22;13497;48.322;16.204;2023-11-22T15:11:06;4.90;99.90
25640;DHT22;13497;48.322;16.204;2023-11-22T15:13:33;4.80;99.90
25640;DHT22;13497;48.322;16.204;2023-11-22T15:15:59;4.90;99.90
25640;DHT22;13497;48.322;16.204;2023-11-22T15:18:25;4.90;99.90
25640;DHT22;13497;48.322;16.204;2023-11-22T15:20:53;4.90;99.90
25640;DHT22;13497;48.322;16.204;2023-11-22T15:23:18;4.80;99.90
25640;DHT22;13497;48.322;16.204;2023-11-22T15:25:46;4.90;99.90
25640;DHT22;13497;48.322;16.204;2023-11-22T15:28:15;4.90;99.90
25640;DHT22;13497;48.322;16.204;2023-11-22T15:30:47;4.90;99.90
25640;DHT22;13497;48.322;16.204;2023-11-22T15:33:23;5.00;99.90
25640;DHT22;13497;48.322;16.204;2023-11-22T15:35:49;4.90;99.90
25640;DHT22;13497;48.322;16.204;2023-11-22T15:38:15;4.90;99.90
25640;DHT22;13497;48.322;16.204;2023-11-22T15:40:41;4.90;99.90
25640;DHT22;13497;48.322;16.204;2023-11-22T15:43:08;4.80;99.90
25640;DHT22;13497;48.322;16.204;2023-11-22T15:45:34;4.70;99.90
25640;DHT22;13497;48.322;16.204;2023-11-22T15:48:01;4.70;99.90
25640;DHT22;13497;48.322;16.204;2023-11-22T15:50:27;4.80;99.90
25640;DHT22;13497;48.322;16.204;2023-11-22T15:52:53;4.80;99.90
25640;DHT22;13497;48.322;16.204;2023-11-22T15:55:18;4.70;99.90